MSC Vienna — A8CI9 — position and weather

sailwx.info

Track history (hours):
 
Tides and Currents Weather Stations Pressure Air Temp Water Temp Dewpoint Dewpoint Depression Visibility Wind Speed Wind Dir Waves Ship Positions

MSC Vienna

Last reported at 2017-Nov-23 13:06 UTC. Time now 2017-Nov-25 04:08 UTC.
Position N 39°20' W 009°51'.

Length 260.1 m; beam 32.2 m; draft 12 m.

Type: Ship (hazmat cat A). MMSI: 636090654.

Date/timePositionNaut miles runAvg speedWind from/ knotsBaromVisibWave heightAir tempDewpointWater temp
2017-Nov-23 13:06N 39°20' W 009°51'220.5
2017-Nov-23 13:00N 39°18' W 009°51'1020.8
2017-Nov-23 12:30N 39°08' W 009°52'1121.0
2017-Nov-23 12:00N 38°58' W 009°52'1121.2
2017-Nov-23 11:30N 38°47' W 009°53'1020.5
2017-Nov-23 11:01N 38°37' W 009°51'1120.4
2017-Nov-23 10:28N 38°26' W 009°48'1920.7
2017-Nov-23 09:32N 38°07' W 009°42'020.9
2017-Nov-23 09:30N 38°07' W 009°42'1520.7
2017-Nov-23 08:48N 37°53' W 009°37'720.6
2017-Nov-23 08:26N 37°45' W 009°35'920.7
2017-Nov-23 08:00N 37°36' W 009°33'6319.3
2017-Nov-23 04:44N 36°41' W 008°55'521.0
2017-Nov-23 04:30N 36°39' W 008°49'6920.8
2017-Nov-23 01:11N 36°19' W 007°27'421.0
2017-Nov-23 01:00N 36°18' W 007°23'3621.1
2017-Nov-22 23:18N 36°06' W 006°40'6520.1
2017-Nov-22 20:04N 36°01' W 005°20'120.0
2017-Nov-22 20:00N 36°01' W 005°19'  
2017-Nov-18 20:08N 38°37' E 015°33'412.8
2017-Nov-18 19:49N 38°33' E 015°35'512.8
2017-Nov-18 19:24N 38°28' E 015°37'612.7
2017-Nov-18 18:56N 38°22' E 015°40'512.5
2017-Nov-18 18:30N 38°17' E 015°43'816.2
2017-Nov-18 18:00N 38°11' E 015°37'611.2
2017-Nov-18 17:31N 38°05' E 015°36'713.0
2017-Nov-18 17:00N 37°59' E 015°35'815.2
2017-Nov-18 16:30N 37°53' E 015°41'  
2017-Nov-15 01:41N 40°44' E 029°14'420.3
2017-Nov-15 01:31N 40°44' E 029°18'1 0.1
2017-Nov-14 12:36N 40°44' E 029°17'111.9
2017-Nov-14 12:30N 40°44' E 029°16'713.4
2017-Nov-14 12:00N 40°44' E 029°07'  
Track history (hours):
 
Tides and Currents Weather Stations Pressure Air Temp Water Temp Dewpoint Dewpoint Depression Visibility Wind Speed Wind Dir Waves Ship Positions

MSC Vienna

Last reported at 2017-Nov-23 13:06 UTC. Time now 2017-Nov-25 04:08 UTC.
Position N 39°20' W 009°51'.

Length 260.1 m; beam 32.2 m; draft 12 m.

Type: Ship (hazmat cat A). MMSI: 636090654.

Date/timePositionNaut miles runAvg speedWind from/ knotsBaromVisibWave heightAir tempDewpointWater temp
2017-Nov-23 13:06N 39°20' W 009°51'220.5
2017-Nov-23 13:00N 39°18' W 009°51'1020.8
2017-Nov-23 12:30N 39°08' W 009°52'1121.0
2017-Nov-23 12:00N 38°58' W 009°52'1121.2
2017-Nov-23 11:30N 38°47' W 009°53'1020.5
2017-Nov-23 11:01N 38°37' W 009°51'1120.4
2017-Nov-23 10:28N 38°26' W 009°48'1920.7
2017-Nov-23 09:32N 38°07' W 009°42'020.9
2017-Nov-23 09:30N 38°07' W 009°42'1520.7
2017-Nov-23 08:48N 37°53' W 009°37'720.6
2017-Nov-23 08:26N 37°45' W 009°35'920.7
2017-Nov-23 08:00N 37°36' W 009°33'6319.3
2017-Nov-23 04:44N 36°41' W 008°55'521.0
2017-Nov-23 04:30N 36°39' W 008°49'6920.8
2017-Nov-23 01:11N 36°19' W 007°27'421.0
2017-Nov-23 01:00N 36°18' W 007°23'3621.1
2017-Nov-22 23:18N 36°06' W 006°40'6520.1
2017-Nov-22 20:04N 36°01' W 005°20'120.0
2017-Nov-22 20:00N 36°01' W 005°19'  
2017-Nov-18 20:08N 38°37' E 015°33'412.8
2017-Nov-18 19:49N 38°33' E 015°35'512.8
2017-Nov-18 19:24N 38°28' E 015°37'612.7
2017-Nov-18 18:56N 38°22' E 015°40'512.5
2017-Nov-18 18:30N 38°17' E 015°43'816.2
2017-Nov-18 18:00N 38°11' E 015°37'611.2
2017-Nov-18 17:31N 38°05' E 015°36'713.0
2017-Nov-18 17:00N 37°59' E 015°35'815.2
2017-Nov-18 16:30N 37°53' E 015°41'  
2017-Nov-15 01:41N 40°44' E 029°14'420.3
2017-Nov-15 01:31N 40°44' E 029°18'1 0.1
2017-Nov-14 12:36N 40°44' E 029°17'111.9
2017-Nov-14 12:30N 40°44' E 029°16'713.4
2017-Nov-14 12:00N 40°44' E 029°07'  

Dump ship's entire track history